sensor_id;sensor_type;location;lat;lon;timestamp;temperature;humidity
47520;DHT22;33252;48.122;11.538;2023-03-01T00:01:31;0.90;99.20
47520;DHT22;33252;48.122;11.538;2023-03-01T00:03:58;0.90;99.10
47520;DHT22;33252;48.122;11.538;2023-03-01T00:06:25;0.90;99.10
47520;DHT22;33252;48.122;11.538;2023-03-01T00:08:52;0.90;99.50
47520;DHT22;33252;48.122;11.538;2023-03-01T00:11:28;0.90;99.50
47520;DHT22;33252;48.122;11.538;2023-03-01T00:13:56;0.90;99.30
47520;DHT22;33252;48.122;11.538;2023-03-01T00:16:27;0.90;99.30
47520;DHT22;33252;48.122;11.538;2023-03-01T00:18:57;0.90;99.40
47520;DHT22;33252;48.122;11.538;2023-03-01T00:21:23;0.90;99.40
47520;DHT22;33252;48.122;11.538;2023-03-01T00:23:49;0.90;99.30
47520;DHT22;33252;48.122;11.538;2023-03-01T00:26:16;0.90;99.40
47520;DHT22;33252;48.122;11.538;2023-03-01T00:28:42;0.90;99.40
47520;DHT22;33252;48.122;11.538;2023-03-01T00:31:11;0.80;99.70
47520;DHT22;33252;48.122;11.538;2023-03-01T00:33:39;0.90;99.50
47520;DHT22;33252;48.122;11.538;2023-03-01T00:36:05;0.80;99.40
47520;DHT22;33252;48.122;11.538;2023-03-01T00:38:33;0.80;99.60
47520;DHT22;33252;48.122;11.538;2023-03-01T00:41:07;0.90;99.30
47520;DHT22;33252;48.122;11.538;2023-03-01T00:43:33;0.90;99.20
47520;DHT22;33252;48.122;11.538;2023-03-01T00:46:23;0.80;99.20
47520;DHT22;33252;48.122;11.538;2023-03-01T00:48:49;0.80;99.40
47520;DHT22;33252;48.122;11.538;2023-03-01T00:51:21;0.80;99.50
47520;DHT22;33252;48.122;11.538;2023-03-01T00:53:47;0.80;99.40
47520;DHT22;33252;48.122;11.538;2023-03-01T00:56:15;0.80;99.40
47520;DHT22;33252;48.122;11.538;2023-03-01T00:58:41;0.80;99.40
47520;DHT22;33252;48.122;11.538;2023-03-01T01:01:08;0.70;99.40
47520;DHT22;33252;48.122;11.538;2023-03-01T01:03:46;0.80;99.40
47520;DHT22;33252;48.122;11.538;2023-03-01T01:06:20;0.80;99.30
47520;DHT22;33252;48.122;11.538;2023-03-01T01:08:46;0.80;99.40
47520;DHT22;33252;48.122;11.538;2023-03-01T01:11:12;0.80;99.30
47520;DHT22;33252;48.122;11.538;2023-03-01T01:13:39;0.70;99.30
47520;DHT22;33252;48.122;11.538;2023-03-01T01:16:05;0.70;99.50
47520;DHT22;33252;48.122;11.538;2023-03-01T01:18:31;0.70;99.40
47520;DHT22;33252;48.122;11.538;2023-03-01T01:20:57;0.70;99.30
47520;DHT22;33252;48.122;11.538;2023-03-01T01:23:23;0.70;99.50
47520;DHT22;33252;48.122;11.538;2023-03-01T01:25:48;0.70;99.60
47520;DHT22;33252;48.122;11.538;2023-03-01T01:28:14;0.70;99.50
47520;DHT22;33252;48.122;11.538;2023-03-01T01:30:40;0.70;99.60
47520;DHT22;33252;48.122;11.538;2023-03-01T01:33:05;0.70;99.40
47520;DHT22;33252;48.122;11.538;2023-03-01T01:35:31;0.70;99.40
47520;DHT22;33252;48.122;11.538;2023-03-01T01:37:56;0.70;99.30
47520;DHT22;33252;48.122;11.538;2023-03-01T01:40:22;0.70;99.40
47520;DHT22;33252;48.122;11.538;2023-03-01T01:42:48;0.70;99.40
47520;DHT22;33252;48.122;11.538;2023-03-01T01:45:30;0.70;99.40
47520;DHT22;33252;48.122;11.538;2023-03-01T01:48:00;0.70;99.50
47520;DHT22;33252;48.122;11.538;2023-03-01T01:50:28;0.70;99.20
47520;DHT22;33252;48.122;11.538;2023-03-01T01:53:14;0.70;99.40
47520;DHT22;33252;48.122;11.538;2023-03-01T01:55:45;0.70;99.20
47520;DHT22;33252;48.122;11.538;2023-03-01T01:58:15;0.70;99.40
47520;DHT22;33252;48.122;11.538;2023-03-01T02:00:43;0.70;99.20
47520;DHT22;33252;48.122;11.538;2023-03-01T02:03:14;0.70;99.10
47520;DHT22;33252;48.122;11.538;2023-03-01T02:05:56;0.70;99.20
47520;DHT22;33252;48.122;11.538;2023-03-01T02:08:26;0.70;99.30
47520;DHT22;33252;48.122;11.538;2023-03-01T02:10:54;0.70;99.40
47520;DHT22;33252;48.122;11.538;2023-03-01T02:13:21;0.70;99.30
47520;DHT22;33252;48.122;11.538;2023-03-01T02:15:46;0.70;99.20
47520;DHT22;33252;48.122;11.538;2023-03-01T02:18:18;0.70;99.30
47520;DHT22;33252;48.122;11.538;2023-03-01T02:23:36;0.60;99.40
47520;DHT22;33252;48.122;11.538;2023-03-01T02:28:43;0.60;99.20
47520;DHT22;33252;48.122;11.538;2023-03-01T02:31:11;0.60;99.20
47520;DHT22;33252;48.122;11.538;2023-03-01T02:33:58;0.60;99.20
47520;DHT22;33252;48.122;11.538;2023-03-01T02:36:36;0.70;99.10
47520;DHT22;33252;48.122;11.538;2023-03-01T02:39:05;0.70;99.10
47520;DHT22;33252;48.122;11.538;2023-03-01T02:41:35;0.70;98.90
47520;DHT22;33252;48.122;11.538;2023-03-01T02:44:03;0.60;98.90
47520;DHT22;33252;48.122;11.538;2023-03-01T02:46:28;0.60;99.20
47520;DHT22;33252;48.122;11.538;2023-03-01T02:48:57;0.60;99.20
47520;DHT22;33252;48.122;11.538;2023-03-01T02:57:20;0.50;99.20
47520;DHT22;33252;48.122;11.538;2023-03-01T02:59:47;0.50;99.20
47520;DHT22;33252;48.122;11.538;2023-03-01T03:02:28;0.60;99.10
47520;DHT22;33252;48.122;11.538;2023-03-01T03:05:13;0.50;99.20
47520;DHT22;33252;48.122;11.538;2023-03-01T03:07:42;0.50;99.20
47520;DHT22;33252;48.122;11.538;2023-03-01T03:10:13;0.50;99.50
47520;DHT22;33252;48.122;11.538;2023-03-01T03:12:39;0.50;99.40
47520;DHT22;33252;48.122;11.538;2023-03-01T03:15:08;0.50;99.20
47520;DHT22;33252;48.122;11.538;2023-03-01T03:17:39;0.50;99.20
47520;DHT22;33252;48.122;11.538;2023-03-01T03:20:08;0.50;99.30
47520;DHT22;33252;48.122;11.538;2023-03-01T03:22:38;0.50;99.10
47520;DHT22;33252;48.122;11.538;2023-03-01T03:25:06;0.50;99.10
47520;DHT22;33252;48.122;11.538;2023-03-01T03:27:39;0.50;99.20
47520;DHT22;33252;48.122;11.538;2023-03-01T03:30:08;0.50;99.10
47520;DHT22;33252;48.122;11.538;2023-03-01T03:32:38;0.50;99.00
47520;DHT22;33252;48.122;11.538;2023-03-01T03:35:05;0.50;98.90
47520;DHT22;33252;48.122;11.538;2023-03-01T03:37:40;0.50;99.10
47520;DHT22;33252;48.122;11.538;2023-03-01T03:40:28;0.30;99.10
47520;DHT22;33252;48.122;11.538;2023-03-01T03:42:54;0.30;98.80
47520;DHT22;33252;48.122;11.538;2023-03-01T03:45:20;0.30;98.80
47520;DHT22;33252;48.122;11.538;2023-03-01T03:47:46;0.30;98.80
47520;DHT22;33252;48.122;11.538;2023-03-01T03:50:14;0.30;98.80
47520;DHT22;33252;48.122;11.538;2023-03-01T03:52:41;0.30;98.90
47520;DHT22;33252;48.122;11.538;2023-03-01T03:55:08;0.30;98.80
47520;DHT22;33252;48.122;11.538;2023-03-01T03:57:41;0.30;98.80
47520;DHT22;33252;48.122;11.538;2023-03-01T04:00:11;0.30;99.00
47520;DHT22;33252;48.122;11.538;2023-03-01T04:02:44;0.30;99.00
47520;DHT22;33252;48.122;11.538;2023-03-01T04:05:12;0.30;99.00
47520;DHT22;33252;48.122;11.538;2023-03-01T04:07:38;0.30;98.80
47520;DHT22;33252;48.122;11.538;2023-03-01T04:10:05;0.30;98.90
47520;DHT22;33252;48.122;11.538;2023-03-01T04:12:32;0.20;98.70
47520;DHT22;33252;48.122;11.538;2023-03-01T04:15:03;0.20;98.90
47520;DHT22;33252;48.122;11.538;2023-03-01T04:17:38;0.20;98.90
47520;DHT22;33252;48.122;11.538;2023-03-01T04:20:05;0.20;98.80
47520;DHT22;33252;48.122;11.538;2023-03-01T04:22:32;0.10;99.00
47520;DHT22;33252;48.122;11.538;2023-03-01T04:24:58;0.20;98.70
47520;DHT22;33252;48.122;11.538;2023-03-01T04:27:34;0.20;98.70
47520;DHT22;33252;48.122;11.538;2023-03-01T04:30:01;0.20;98.80
47520;DHT22;33252;48.122;11.538;2023-03-01T04:32:27;0.10;98.80
47520;DHT22;33252;48.122;11.538;2023-03-01T04:34:53;0.20;98.90
47520;DHT22;33252;48.122;11.538;2023-03-01T04:37:18;0.20;98.90
47520;DHT22;33252;48.122;11.538;2023-03-01T04:39:44;0.20;98.70
47520;DHT22;33252;48.122;11.538;2023-03-01T04:42:13;0.20;99.00
47520;DHT22;33252;48.122;11.538;2023-03-01T04:44:39;0.10;98.80
47520;DHT22;33252;48.122;11.538;2023-03-01T04:47:05;0.10;98.70
47520;DHT22;33252;48.122;11.538;2023-03-01T04:49:31;0.10;98.80
47520;DHT22;33252;48.122;11.538;2023-03-01T04:51:57;0.10;98.60
47520;DHT22;33252;48.122;11.538;2023-03-01T04:54:33;0.10;98.80
47520;DHT22;33252;48.122;11.538;2023-03-01T04:57:00;0.10;98.70
47520;DHT22;33252;48.122;11.538;2023-03-01T04:59:25;0.10;98.70
47520;DHT22;33252;48.122;11.538;2023-03-01T05:01:53;0.10;98.90
47520;DHT22;33252;48.122;11.538;2023-03-01T05:04:25;0.00;99.00
47520;DHT22;33252;48.122;11.538;2023-03-01T05:06:51;0.00;99.00
47520;DHT22;33252;48.122;11.538;2023-03-01T05:09:19;0.00;99.10
47520;DHT22;33252;48.122;11.538;2023-03-01T05:11:44;0.00;99.10
47520;DHT22;33252;48.122;11.538;2023-03-01T05:14:10;-0.10;99.20
47520;DHT22;33252;48.122;11.538;2023-03-01T05:16:36;-0.10;99.20
47520;DHT22;33252;48.122;11.538;2023-03-01T05:19:03;0.00;99.20
47520;DHT22;33252;48.122;11.538;2023-03-01T05:21:40;-0.10;99.10
47520;DHT22;33252;48.122;11.538;2023-03-01T05:24:25;-0.20;99.30
47520;DHT22;33252;48.122;11.538;2023-03-01T05:26:52;-0.10;99.30
47520;DHT22;33252;48.122;11.538;2023-03-01T05:29:21;-0.10;99.20
47520;DHT22;33252;48.122;11.538;2023-03-01T05:32:02;-0.20;99.20
47520;DHT22;33252;48.122;11.538;2023-03-01T05:34:30;-0.30;99.20
47520;DHT22;33252;48.122;11.538;2023-03-01T05:36:56;-0.30;99.20
47520;DHT22;33252;48.122;11.538;2023-03-01T05:39:24;-0.30;99.30
47520;DHT22;33252;48.122;11.538;2023-03-01T05:41:55;-0.30;99.30
47520;DHT22;33252;48.122;11.538;2023-03-01T05:44:22;-0.30;99.30
47520;DHT22;33252;48.122;11.538;2023-03-01T05:46:47;-0.30;99.30
47520;DHT22;33252;48.122;11.538;2023-03-01T05:49:14;-0.30;99.30
47520;DHT22;33252;48.122;11.538;2023-03-01T05:51:40;-0.30;99.10
47520;DHT22;33252;48.122;11.538;2023-03-01T05:54:07;-0.40;99.30
47520;DHT22;33252;48.122;11.538;2023-03-01T05:56:34;-0.30;99.30
47520;DHT22;33252;48.122;11.538;2023-03-01T05:59:00;-0.40;99.40
47520;DHT22;33252;48.122;11.538;2023-03-01T06:01:26;-0.40;99.20
47520;DHT22;33252;48.122;11.538;2023-03-01T06:03:52;-0.40;99.10
47520;DHT22;33252;48.122;11.538;2023-03-01T06:06:17;-0.40;99.10
47520;DHT22;33252;48.122;11.538;2023-03-01T06:08:43;-0.40;99.20
47520;DHT22;33252;48.122;11.538;2023-03-01T06:11:09;-0.40;99.30
47520;DHT22;33252;48.122;11.538;2023-03-01T06:13:35;-0.40;99.30
47520;DHT22;33252;48.122;11.538;2023-03-01T06:16:00;-0.40;99.10
47520;DHT22;33252;48.122;11.538;2023-03-01T06:18:26;-0.40;99.10
47520;DHT22;33252;48.122;11.538;2023-03-01T06:20:55;-0.40;99.10
47520;DHT22;33252;48.122;11.538;2023-03-01T06:23:22;-0.40;99.10
47520;DHT22;33252;48.122;11.538;2023-03-01T06:25:48;-0.40;99.30
47520;DHT22;33252;48.122;11.538;2023-03-01T06:28:14;-0.30;99.30
47520;DHT22;33252;48.122;11.538;2023-03-01T06:30:40;-0.40;99.30
47520;DHT22;33252;48.122;11.538;2023-03-01T06:33:06;-0.40;99.00
47520;DHT22;33252;48.122;11.538;2023-03-01T06:35:31;-0.50;99.20
47520;DHT22;33252;48.122;11.538;2023-03-01T06:37:59;-0.40;99.40
47520;DHT22;33252;48.122;11.538;2023-03-01T06:40:25;-0.40;99.20
47520;DHT22;33252;48.122;11.538;2023-03-01T06:42:51;-0.30;99.20
47520;DHT22;33252;48.122;11.538;2023-03-01T06:45:19;-0.30;99.20
47520;DHT22;33252;48.122;11.538;2023-03-01T06:47:45;-0.30;99.00
47520;DHT22;33252;48.122;11.538;2023-03-01T06:50:11;-0.20;99.10
47520;DHT22;33252;48.122;11.538;2023-03-01T06:52:37;-0.20;99.20
47520;DHT22;33252;48.122;11.538;2023-03-01T06:55:02;-0.20;98.90
47520;DHT22;33252;48.122;11.538;2023-03-01T06:57:28;-0.20;98.90
47520;DHT22;33252;48.122;11.538;2023-03-01T06:59:54;-0.20;98.80
47520;DHT22;33252;48.122;11.538;2023-03-01T07:02:20;-0.20;98.70
47520;DHT22;33252;48.122;11.538;2023-03-01T07:04:46;-0.20;98.90
47520;DHT22;33252;48.122;11.538;2023-03-01T07:07:11;-0.10;98.60
47520;DHT22;33252;48.122;11.538;2023-03-01T07:09:37;-0.20;98.80
47520;DHT22;33252;48.122;11.538;2023-03-01T07:12:03;-0.10;99.00
47520;DHT22;33252;48.122;11.538;2023-03-01T07:14:28;-0.10;99.00
47520;DHT22;33252;48.122;11.538;2023-03-01T07:16:54;-0.10;99.00
47520;DHT22;33252;48.122;11.538;2023-03-01T07:19:21;-0.10;98.60
47520;DHT22;33252;48.122;11.538;2023-03-01T07:21:47;-0.20;98.80
47520;DHT22;33252;48.122;11.538;2023-03-01T07:24:13;-0.10;99.00
47520;DHT22;33252;48.122;11.538;2023-03-01T07:26:39;-0.10;98.90
47520;DHT22;33252;48.122;11.538;2023-03-01T07:29:06;0.00;99.00
47520;DHT22;33252;48.122;11.538;2023-03-01T07:31:32;0.00;98.80
47520;DHT22;33252;48.122;11.538;2023-03-01T07:33:58;0.00;98.50
47520;DHT22;33252;48.122;11.538;2023-03-01T07:36:24;-0.10;98.70
47520;DHT22;33252;48.122;11.538;2023-03-01T07:38:50;0.00;98.90
47520;DHT22;33252;48.122;11.538;2023-03-01T07:41:16;0.10;98.20
47520;DHT22;33252;48.122;11.538;2023-03-01T07:43:41;0.10;98.10
47520;DHT22;33252;48.122;11.538;2023-03-01T07:46:07;0.10;98.20
47520;DHT22;33252;48.122;11.538;2023-03-01T07:48:33;0.20;98.20
47520;DHT22;33252;48.122;11.538;2023-03-01T07:51:00;0.20;98.30
47520;DHT22;33252;48.122;11.538;2023-03-01T07:53:26;0.10;98.20
47520;DHT22;33252;48.122;11.538;2023-03-01T07:56:06;0.20;98.40
47520;DHT22;33252;48.122;11.538;2023-03-01T07:58:37;0.20;98.40
47520;DHT22;33252;48.122;11.538;2023-03-01T08:01:04;0.20;98.20
47520;DHT22;33252;48.122;11.538;2023-03-01T08:03:31;0.30;98.00
47520;DHT22;33252;48.122;11.538;2023-03-01T08:05:59;0.20;98.50
47520;DHT22;33252;48.122;11.538;2023-03-01T08:08:25;0.30;98.40
47520;DHT22;33252;48.122;11.538;2023-03-01T08:10:51;0.30;98.10
47520;DHT22;33252;48.122;11.538;2023-03-01T08:13:16;0.30;98.30
47520;DHT22;33252;48.122;11.538;2023-03-01T08:15:50;0.40;98.00
47520;DHT22;33252;48.122;11.538;2023-03-01T08:18:20;0.50;97.90
47520;DHT22;33252;48.122;11.538;2023-03-01T08:20:46;0.40;97.60
47520;DHT22;33252;48.122;11.538;2023-03-01T08:23:12;0.50;97.90
47520;DHT22;33252;48.122;11.538;2023-03-01T08:25:38;0.60;97.30
47520;DHT22;33252;48.122;11.538;2023-03-01T08:28:05;0.40;97.60
47520;DHT22;33252;48.122;11.538;2023-03-01T08:30:30;0.40;97.70
47520;DHT22;33252;48.122;11.538;2023-03-01T08:32:56;0.50;98.00
47520;DHT22;33252;48.122;11.538;2023-03-01T08:35:22;0.60;97.60
47520;DHT22;33252;48.122;11.538;2023-03-01T08:37:48;0.70;97.50
47520;DHT22;33252;48.122;11.538;2023-03-01T08:40:13;0.70;97.60
47520;DHT22;33252;48.122;11.538;2023-03-01T08:42:41;0.80;97.40
47520;DHT22;33252;48.122;11.538;2023-03-01T08:45:09;0.70;97.40
47520;DHT22;33252;48.122;11.538;2023-03-01T08:47:35;0.80;97.50
47520;DHT22;33252;48.122;11.538;2023-03-01T08:50:01;0.90;97.30
47520;DHT22;33252;48.122;11.538;2023-03-01T08:52:26;0.90;97.30
47520;DHT22;33252;48.122;11.538;2023-03-01T08:54:53;0.90;97.10
47520;DHT22;33252;48.122;11.538;2023-03-01T08:57:18;0.80;97.20
47520;DHT22;33252;48.122;11.538;2023-03-01T08:59:44;0.90;97.10
47520;DHT22;33252;48.122;11.538;2023-03-01T09:02:15;0.90;97.20
47520;DHT22;33252;48.122;11.538;2023-03-01T09:04:41;0.80;97.10
47520;DHT22;33252;48.122;11.538;2023-03-01T09:07:07;1.00;97.40
47520;DHT22;33252;48.122;11.538;2023-03-01T09:09:33;1.00;96.80
47520;DHT22;33252;48.122;11.538;2023-03-01T09:11:59;1.00;97.20
47520;DHT22;33252;48.122;11.538;2023-03-01T09:14:24;1.10;97.10
47520;DHT22;33252;48.122;11.538;2023-03-01T09:16:50;1.10;96.80
47520;DHT22;33252;48.122;11.538;2023-03-01T09:19:16;1.00;96.50
47520;DHT22;33252;48.122;11.538;2023-03-01T09:21:42;1.10;97.30
47520;DHT22;33252;48.122;11.538;2023-03-01T09:24:18;1.10;97.20
47520;DHT22;33252;48.122;11.538;2023-03-01T09:26:44;1.20;97.00
47520;DHT22;33252;48.122;11.538;2023-03-01T09:29:13;1.20;97.00
47520;DHT22;33252;48.122;11.538;2023-03-01T09:31:40;1.10;97.10
47520;DHT22;33252;48.122;11.538;2023-03-01T09:34:06;1.20;97.20
47520;DHT22;33252;48.122;11.538;2023-03-01T09:36:32;1.30;96.90
47520;DHT22;33252;48.122;11.538;2023-03-01T09:38:58;1.20;96.90
47520;DHT22;33252;48.122;11.538;2023-03-01T09:41:44;1.30;97.10
47520;DHT22;33252;48.122;11.538;2023-03-01T09:54:49;1.50;96.80
47520;DHT22;33252;48.122;11.538;2023-03-01T09:57:20;1.60;96.50
47520;DHT22;33252;48.122;11.538;2023-03-01T10:02:41;1.80;96.30
47520;DHT22;33252;48.122;11.538;2023-03-01T10:05:31;1.70;96.30
47520;DHT22;33252;48.122;11.538;2023-03-01T10:08:19;1.80;96.20
47520;DHT22;33252;48.122;11.538;2023-03-01T10:10:49;1.80;96.40
47520;DHT22;33252;48.122;11.538;2023-03-01T10:13:16;1.80;96.20
47520;DHT22;33252;48.122;11.538;2023-03-01T10:15:49;1.70;96.20
47520;DHT22;33252;48.122;11.538;2023-03-01T10:18:22;1.70;96.60
47520;DHT22;33252;48.122;11.538;2023-03-01T10:20:56;1.70;96.40
47520;DHT22;33252;48.122;11.538;2023-03-01T10:23:24;1.80;96.30
47520;DHT22;33252;48.122;11.538;2023-03-01T10:26:53;1.90;96.10
47520;DHT22;33252;48.122;11.538;2023-03-01T10:31:22;1.90;96.20
47520;DHT22;33252;48.122;11.538;2023-03-01T10:33:53;2.00;96.10
47520;DHT22;33252;48.122;11.538;2023-03-01T10:36:21;2.10;96.50
47520;DHT22;33252;48.122;11.538;2023-03-01T10:41:14;2.10;95.90
47520;DHT22;33252;48.122;11.538;2023-03-01T10:43:47;2.30;95.90
47520;DHT22;33252;48.122;11.538;2023-03-01T10:49:18;2.40;95.50
47520;DHT22;33252;48.122;11.538;2023-03-01T10:51:45;2.40;95.20
47520;DHT22;33252;48.122;11.538;2023-03-01T10:54:29;2.30;95.10
47520;DHT22;33252;48.122;11.538;2023-03-01T10:56:57;2.30;95.30
47520;DHT22;33252;48.122;11.538;2023-03-01T10:59:29;2.40;95.00
47520;DHT22;33252;48.122;11.538;2023-03-01T11:02:18;2.50;95.00
47520;DHT22;33252;48.122;11.538;2023-03-01T11:05:03;2.40;95.40
47520;DHT22;33252;48.122;11.538;2023-03-01T11:07:53;2.40;95.30
47520;DHT22;33252;48.122;11.538;2023-03-01T11:10:21;2.50;95.10
47520;DHT22;33252;48.122;11.538;2023-03-01T11:12:47;2.60;95.10
47520;DHT22;33252;48.122;11.538;2023-03-01T11:15:26;2.50;95.70
47520;DHT22;33252;48.122;11.538;2023-03-01T11:17:54;2.50;95.40
47520;DHT22;33252;48.122;11.538;2023-03-01T11:22:59;2.70;94.80
47520;DHT22;33252;48.122;11.538;2023-03-01T11:25:31;2.70;94.90
47520;DHT22;33252;48.122;11.538;2023-03-01T11:27:59;2.70;95.50
47520;DHT22;33252;48.122;11.538;2023-03-01T11:30:31;2.80;95.00
47520;DHT22;33252;48.122;11.538;2023-03-01T11:33:17;2.80;94.80
47520;DHT22;33252;48.122;11.538;2023-03-01T11:38:34;3.00;94.20
47520;DHT22;33252;48.122;11.538;2023-03-01T11:41:19;3.10;94.40
47520;DHT22;33252;48.122;11.538;2023-03-01T11:44:03;3.20;94.30
47520;DHT22;33252;48.122;11.538;2023-03-01T11:54:46;3.60;93.70
47520;DHT22;33252;48.122;11.538;2023-03-01T12:14:13;4.30;93.50
47520;DHT22;33252;48.122;11.538;2023-03-01T12:20:14;4.20;92.70
47520;DHT22;33252;48.122;11.538;2023-03-01T12:28:47;3.90;94.00
47520;DHT22;33252;48.122;11.538;2023-03-01T12:37:37;4.10;93.40
47520;DHT22;33252;48.122;11.538;2023-03-01T12:50:48;4.60;92.90
47520;DHT22;33252;48.122;11.538;2023-03-01T12:53:23;4.90;92.70
47520;DHT22;33252;48.122;11.538;2023-03-01T12:55:50;5.20;92.30
47520;DHT22;33252;48.122;11.538;2023-03-01T12:58:37;5.50;92.00
47520;DHT22;33252;48.122;11.538;2023-03-01T13:17:52;6.10;90.60
47520;DHT22;33252;48.122;11.538;2023-03-01T13:21:05;6.30;90.40
47520;DHT22;33252;48.122;11.538;2023-03-01T13:26:15;6.80;89.80
47520;DHT22;33252;48.122;11.538;2023-03-01T13:28:48;6.90;88.60
47520;DHT22;33252;48.122;11.538;2023-03-01T13:38:56;7.20;90.10
47520;DHT22;33252;48.122;11.538;2023-03-01T13:41:49;7.50;89.00
47520;DHT22;33252;48.122;11.538;2023-03-01T13:46:48;7.40;89.30
47520;DHT22;33252;48.122;11.538;2023-03-01T13:49:19;7.40;89.40
47520;DHT22;33252;48.122;11.538;2023-03-01T13:51:50;7.80;88.70
47520;DHT22;33252;48.122;11.538;2023-03-01T13:54:25;7.80;88.40
47520;DHT22;33252;48.122;11.538;2023-03-01T13:56:52;7.70;89.20
47520;DHT22;33252;48.122;11.538;2023-03-01T13:59:21;7.50;88.50
47520;DHT22;33252;48.122;11.538;2023-03-01T14:02:00;7.90;87.80
47520;DHT22;33252;48.122;11.538;2023-03-01T14:07:11;7.90;88.20
47520;DHT22;33252;48.122;11.538;2023-03-01T14:09:43;7.90;87.80
47520;DHT22;33252;48.122;11.538;2023-03-01T14:15:00;7.60;89.10
47520;DHT22;33252;48.122;11.538;2023-03-01T14:17:36;7.60;88.60
47520;DHT22;33252;48.122;11.538;2023-03-01T14:20:30;7.50;89.80
47520;DHT22;33252;48.122;11.538;2023-03-01T14:22:59;7.30;89.10
47520;DHT22;33252;48.122;11.538;2023-03-01T14:25:33;7.20;89.70
47520;DHT22;33252;48.122;11.538;2023-03-01T14:28:04;7.30;89.90
47520;DHT22;33252;48.122;11.538;2023-03-01T14:30:34;7.10;90.40
47520;DHT22;33252;48.122;11.538;2023-03-01T14:33:03;7.20;89.80
47520;DHT22;33252;48.122;11.538;2023-03-01T14:35:36;7.20;90.50
47520;DHT22;33252;48.122;11.538;2023-03-01T14:38:02;7.20;90.10
47520;DHT22;33252;48.122;11.538;2023-03-01T14:40:30;7.20;90.20
47520;DHT22;33252;48.122;11.538;2023-03-01T14:42:58;7.20;90.20
47520;DHT22;33252;48.122;11.538;2023-03-01T14:45:27;7.40;90.10
47520;DHT22;33252;48.122;11.538;2023-03-01T14:47:54;7.50;90.20
47520;DHT22;33252;48.122;11.538;2023-03-01T14:50:32;7.50;90.00
47520;DHT22;33252;48.122;11.538;2023-03-01T14:53:04;7.70;88.40
47520;DHT22;33252;48.122;11.538;2023-03-01T14:56:15;7.40;90.00
47520;DHT22;33252;48.122;11.538;2023-03-01T14:58:24;7.50;90.90
47520;DHT22;33252;48.122;11.538;2023-03-01T15:00:55;7.30;90.40
47520;DHT22;33252;48.122;11.538;2023-03-01T15:03:31;7.20;90.30
47520;DHT22;33252;48.122;11.538;2023-03-01T15:06:00;7.30;90.80
47520;DHT22;33252;48.122;11.538;2023-03-01T15:08:27;7.50;90.50
47520;DHT22;33252;48.122;11.538;2023-03-01T15:11:05;7.30;91.00
47520;DHT22;33252;48.122;11.538;2023-03-01T15:13:41;7.30;90.60
47520;DHT22;33252;48.122;11.538;2023-03-01T15:16:10;7.20;90.80
47520;DHT22;33252;48.122;11.538;2023-03-01T15:18:36;7.30;90.80
47520;DHT22;33252;48.122;11.538;2023-03-01T15:21:17;7.10;91.00
47520;DHT22;33252;48.122;11.538;2023-03-01T15:23:52;7.20;90.40
47520;DHT22;33252;48.122;11.538;2023-03-01T15:26:42;7.20;90.70
47520;DHT22;33252;48.122;11.538;2023-03-01T15:29:18;7.30;90.60
47520;DHT22;33252;48.122;11.538;2023-03-01T15:31:55;7.20;91.20
47520;DHT22;33252;48.122;11.538;2023-03-01T15:34:36;6.90;91.40
47520;DHT22;33252;48.122;11.538;2023-03-01T15:37:04;7.10;91.00
47520;DHT22;33252;48.122;11.538;2023-03-01T15:42:07;6.90;91.60
47520;DHT22;33252;48.122;11.538;2023-03-01T15:44:38;6.90;91.40
47520;DHT22;33252;48.122;11.538;2023-03-01T15:47:21;6.70;91.50
47520;DHT22;33252;48.122;11.538;2023-03-01T15:49:47;6.80;91.40
47520;DHT22;33252;48.122;11.538;2023-03-01T15:54:56;6.50;92.20
47520;DHT22;33252;48.122;11.538;2023-03-01T15:57:22;6.50;92.10
47520;DHT22;33252;48.122;11.538;2023-03-01T15:59:48;6.50;92.10
47520;DHT22;33252;48.122;11.538;2023-03-01T16:02:14;6.30;92.50
47520;DHT22;33252;48.122;11.538;2023-03-01T16:04:40;6.20;92.40
47520;DHT22;33252;48.122;11.538;2023-03-01T16:07:06;6.10;92.70
47520;DHT22;33252;48.122;11.538;2023-03-01T16:09:32;6.00;93.20
47520;DHT22;33252;48.122;11.538;2023-03-01T16:12:00;5.90;93.60
47520;DHT22;33252;48.122;11.538;2023-03-01T16:14:27;5.90;93.20
47520;DHT22;33252;48.122;11.538;2023-03-01T16:16:53;5.70;93.80
47520;DHT22;33252;48.122;11.538;2023-03-01T16:19:18;5.80;93.50
47520;DHT22;33252;48.122;11.538;2023-03-01T16:21:44;5.80;93.50
47520;DHT22;33252;48.122;11.538;2023-03-01T16:24:12;5.70;93.50
47520;DHT22;33252;48.122;11.538;2023-03-01T16:26:38;5.60;94.00
47520;DHT22;33252;48.122;11.538;2023-03-01T16:29:04;5.50;94.10
47520;DHT22;33252;48.122;11.538;2023-03-01T16:31:30;5.50;94.30
47520;DHT22;33252;48.122;11.538;2023-03-01T16:33:57;5.30;94.60
47520;DHT22;33252;48.122;11.538;2023-03-01T16:36:25;5.30;94.40
47520;DHT22;33252;48.122;11.538;2023-03-01T16:38:51;5.30;94.60
47520;DHT22;33252;48.122;11.538;2023-03-01T16:41:20;5.30;94.90
47520;DHT22;33252;48.122;11.538;2023-03-01T16:43:46;5.20;94.80
47520;DHT22;33252;48.122;11.538;2023-03-01T16:46:18;5.10;95.10
47520;DHT22;33252;48.122;11.538;2023-03-01T16:48:45;5.10;95.10
47520;DHT22;33252;48.122;11.538;2023-03-01T16:51:12;5.00;95.10
47520;DHT22;33252;48.122;11.538;2023-03-01T16:53:38;5.00;95.20
47520;DHT22;33252;48.122;11.538;2023-03-01T16:56:07;4.90;95.30
47520;DHT22;33252;48.122;11.538;2023-03-01T16:58:34;4.80;95.60
47520;DHT22;33252;48.122;11.538;2023-03-01T17:01:09;4.70;95.70
47520;DHT22;33252;48.122;11.538;2023-03-01T17:03:36;4.60;95.80
47520;DHT22;33252;48.122;11.538;2023-03-01T17:06:09;4.60;96.30
47520;DHT22;33252;48.122;11.538;2023-03-01T17:08:36;4.60;95.90
47520;DHT22;33252;48.122;11.538;2023-03-01T17:11:06;4.50;96.10
47520;DHT22;33252;48.122;11.538;2023-03-01T17:13:33;4.50;96.20
47520;DHT22;33252;48.122;11.538;2023-03-01T17:16:01;4.40;96.30
47520;DHT22;33252;48.122;11.538;2023-03-01T17:18:27;4.50;96.20
47520;DHT22;33252;48.122;11.538;2023-03-01T17:20:53;4.40;96.10
47520;DHT22;33252;48.122;11.538;2023-03-01T17:23:19;4.30;96.30
47520;DHT22;33252;48.122;11.538;2023-03-01T17:25:45;4.20;96.50
47520;DHT22;33252;48.122;11.538;2023-03-01T17:28:14;4.10;96.80
47520;DHT22;33252;48.122;11.538;2023-03-01T17:30:44;4.10;96.80
47520;DHT22;33252;48.122;11.538;2023-03-01T17:33:10;4.00;96.70
47520;DHT22;33252;48.122;11.538;2023-03-01T17:35:36;3.90;96.90
47520;DHT22;33252;48.122;11.538;2023-03-01T17:38:03;3.80;97.20
47520;DHT22;33252;48.122;11.538;2023-03-01T17:40:29;3.80;97.30
47520;DHT22;33252;48.122;11.538;2023-03-01T17:42:55;3.70;97.30
47520;DHT22;33252;48.122;11.538;2023-03-01T17:45:21;3.70;97.50
47520;DHT22;33252;48.122;11.538;2023-03-01T17:47:47;3.50;97.70
47520;DHT22;33252;48.122;11.538;2023-03-01T17:50:13;3.50;98.00
47520;DHT22;33252;48.122;11.538;2023-03-01T17:52:39;3.30;98.20